createdAt,value
2023-02-28T00:00:29.649Z,1027.43
2023-02-28T00:01:30.027Z,1027.48
2023-02-28T00:02:29.719Z,1027.47
2023-02-28T00:03:29.688Z,1027.45
2023-02-28T00:04:29.629Z,1027.50
2023-02-28T00:05:29.606Z,1027.58
2023-02-28T00:06:29.607Z,1027.50
2023-02-28T00:07:29.580Z,1027.50
2023-02-28T00:08:29.610Z,1027.50
2023-02-28T00:09:29.575Z,1027.50
2023-02-28T00:10:29.559Z,1027.45
2023-02-28T00:11:29.900Z,1027.56
2023-02-28T00:12:29.533Z,1027.48
2023-02-28T00:13:29.529Z,1027.54
2023-02-28T00:14:29.519Z,1027.57
2023-02-28T00:15:29.512Z,1027.58
2023-02-28T00:16:29.526Z,1027.59
2023-02-28T00:17:29.492Z,1027.57
2023-02-28T00:18:31.426Z,1027.52
2023-02-28T00:19:29.460Z,1027.52
2023-02-28T00:20:29.447Z,1027.54
2023-02-28T00:21:29.819Z,1027.58
2023-02-28T00:22:29.450Z,1027.58
2023-02-28T00:23:29.436Z,1027.58
2023-02-28T00:24:29.479Z,1027.60
2023-02-28T00:25:29.404Z,1027.57
2023-02-28T00:26:29.402Z,1027.57
2023-02-28T00:27:29.385Z,1027.59
2023-02-28T00:28:29.372Z,1027.54
2023-02-28T00:29:29.359Z,1027.56
2023-02-28T00:30:29.396Z,1027.51
2023-02-28T00:31:29.706Z,1027.53
2023-02-28T00:32:29.325Z,1027.52
2023-02-28T00:33:29.324Z,1027.49
2023-02-28T00:34:29.303Z,1027.55
2023-02-28T00:35:29.318Z,1027.58
2023-02-28T00:36:29.301Z,1027.53
2023-02-28T00:37:29.278Z,1027.54
2023-02-28T00:38:29.271Z,1027.56
2023-02-28T00:39:29.259Z,1027.56
2023-02-28T00:40:29.275Z,1027.60
2023-02-28T00:41:29.681Z,1027.58
2023-02-28T00:42:29.215Z,1027.54
2023-02-28T00:43:29.214Z,1027.56
2023-02-28T00:44:29.196Z,1027.60
2023-02-28T00:45:29.184Z,1027.55
2023-02-28T00:46:29.309Z,1027.57
2023-02-28T00:47:29.180Z,1027.61
2023-02-28T00:48:29.163Z,1027.58
2023-02-28T00:49:29.149Z,1027.57
2023-02-28T00:50:29.130Z,1027.59
2023-02-28T00:51:29.490Z,1027.57
2023-02-28T00:52:29.141Z,1027.55
2023-02-28T00:53:29.135Z,1027.57
2023-02-28T00:54:29.094Z,1027.64
2023-02-28T00:55:29.087Z,1027.59
2023-02-28T00:56:29.087Z,1027.62
2023-02-28T00:57:29.090Z,1027.60
2023-02-28T00:58:29.068Z,1027.60
2023-02-28T00:59:29.054Z,1027.60
2023-02-28T01:00:29.052Z,1027.62
2023-02-28T01:01:29.367Z,1027.66
2023-02-28T01:02:29.018Z,1027.62
2023-02-28T01:03:29.006Z,1027.65
2023-02-28T01:04:29.041Z,1027.60
2023-02-28T01:05:28.979Z,1027.64
2023-02-28T01:06:28.977Z,1027.60
2023-02-28T01:07:28.964Z,1027.63
2023-02-28T01:08:28.956Z,1027.59
2023-02-28T01:09:28.968Z,1027.64
2023-02-28T01:10:28.928Z,1027.66
2023-02-28T01:11:29.291Z,1027.63
2023-02-28T01:12:30.901Z,1027.67
2023-02-28T01:13:28.906Z,1027.67
2023-02-28T01:14:28.906Z,1027.63
2023-02-28T01:15:28.936Z,1027.60
2023-02-28T01:16:28.876Z,1027.59
2023-02-28T01:17:28.860Z,1027.57
2023-02-28T01:18:28.846Z,1027.61
2023-02-28T01:19:28.831Z,1027.61
2023-02-28T01:20:28.832Z,1027.59
2023-02-28T01:21:29.066Z,1027.58
2023-02-28T01:22:28.805Z,1027.58
2023-02-28T01:23:28.794Z,1027.59
2023-02-28T01:24:28.798Z,1027.65
2023-02-28T01:25:28.786Z,1027.56
2023-02-28T01:26:28.785Z,1027.57
2023-02-28T01:27:28.744Z,1027.53
2023-02-28T01:28:28.758Z,1027.51
2023-02-28T01:29:28.733Z,1027.56
2023-02-28T01:30:28.724Z,1027.48
2023-02-28T01:31:29.134Z,1027.49
2023-02-28T01:32:28.704Z,1027.52
2023-02-28T01:33:28.685Z,1027.49
2023-02-28T01:34:28.682Z,1027.44
2023-02-28T01:35:28.672Z,1027.52
2023-02-28T01:36:28.658Z,1027.50
2023-02-28T01:37:28.656Z,1027.46
2023-02-28T01:38:28.652Z,1027.49
2023-02-28T01:39:28.623Z,1027.45
2023-02-28T01:40:28.617Z,1027.43
2023-02-28T01:41:29.134Z,1027.48
2023-02-28T01:42:28.598Z,1027.44
2023-02-28T01:43:28.587Z,1027.41
2023-02-28T01:44:28.619Z,1027.47
2023-02-28T01:45:28.569Z,1027.43
2023-02-28T01:46:28.612Z,1027.40
2023-02-28T01:47:28.544Z,1027.40
2023-02-28T01:48:28.561Z,1027.38
2023-02-28T01:49:28.530Z,1027.34
2023-02-28T01:50:28.507Z,1027.39
2023-02-28T01:51:28.913Z,1027.38
2023-02-28T01:52:28.487Z,1027.37
2023-02-28T01:53:28.501Z,1027.36
2023-02-28T01:54:28.467Z,1027.33
2023-02-28T01:55:28.448Z,1027.34
2023-02-28T01:56:28.453Z,1027.42
2023-02-28T01:57:28.434Z,1027.35
2023-02-28T01:58:28.444Z,1027.37
2023-02-28T01:59:28.403Z,1027.38
2023-02-28T02:00:28.435Z,1027.42
2023-02-28T02:01:28.862Z,1027.40
2023-02-28T02:02:28.423Z,1027.37
2023-02-28T02:03:28.382Z,1027.36
2023-02-28T02:04:28.371Z,1027.40
2023-02-28T02:05:28.348Z,1027.42
2023-02-28T02:06:28.333Z,1027.36
2023-02-28T02:07:28.322Z,1027.44
2023-02-28T02:08:28.316Z,1027.41
2023-02-28T02:09:28.313Z,1027.36
2023-02-28T02:10:28.309Z,1027.39
2023-02-28T02:11:28.627Z,1027.45
2023-02-28T02:12:28.280Z,1027.37
2023-02-28T02:13:28.270Z,1027.39
2023-02-28T02:14:28.266Z,1027.42
2023-02-28T02:15:28.257Z,1027.38
2023-02-28T02:16:28.256Z,1027.42
2023-02-28T02:17:28.229Z,1027.37
2023-02-28T02:18:28.202Z,1027.39
2023-02-28T02:19:28.195Z,1027.27
2023-02-28T02:20:28.199Z,1027.42
2023-02-28T02:21:28.613Z,1027.36
2023-02-28T02:22:28.179Z,1027.43
2023-02-28T02:23:28.203Z,1027.45
2023-02-28T02:24:28.161Z,1027.40
2023-02-28T02:25:28.160Z,1027.34
2023-02-28T02:26:28.131Z,1027.37
2023-02-28T02:27:28.118Z,1027.38
2023-02-28T02:28:28.107Z,1027.36
2023-02-28T02:29:28.097Z,1027.32
2023-02-28T02:30:28.088Z,1027.34
2023-02-28T02:31:28.541Z,1027.41
2023-02-28T02:32:28.146Z,1027.39
2023-02-28T02:33:28.058Z,1027.35
2023-02-28T02:34:28.049Z,1027.40
2023-02-28T02:35:28.094Z,1027.35
2023-02-28T02:36:28.022Z,1027.37
2023-02-28T02:37:28.030Z,1027.40
2023-02-28T02:38:28.012Z,1027.34
2023-02-28T02:39:27.985Z,1027.44
2023-02-28T02:40:27.974Z,1027.41
2023-02-28T02:41:28.397Z,1027.43
2023-02-28T02:42:27.954Z,1027.41
2023-02-28T02:43:27.968Z,1027.41
2023-02-28T02:44:27.944Z,1027.34
2023-02-28T02:45:27.930Z,1027.41
2023-02-28T02:46:27.931Z,1027.31
2023-02-28T02:47:27.915Z,1027.36
2023-02-28T02:48:27.914Z,1027.35
2023-02-28T02:49:27.892Z,1027.37
2023-02-28T02:50:27.877Z,1027.38
2023-02-28T02:51:28.160Z,1027.44
2023-02-28T02:52:27.855Z,1027.38
2023-02-28T02:53:27.850Z,1027.42
2023-02-28T02:54:27.840Z,1027.46
2023-02-28T02:55:27.840Z,1027.42
2023-02-28T02:56:27.823Z,1027.39
2023-02-28T02:57:27.816Z,1027.44
2023-02-28T02:58:27.790Z,1027.39
2023-02-28T02:59:27.781Z,1027.39
2023-02-28T03:00:27.784Z,1027.40
2023-02-28T03:01:28.351Z,1027.40
2023-02-28T03:02:27.748Z,1027.44
2023-02-28T03:03:27.775Z,1027.42
2023-02-28T03:04:27.761Z,1027.40
2023-02-28T03:05:27.726Z,1027.40
2023-02-28T03:06:27.717Z,1027.42
2023-02-28T03:07:27.710Z,1027.37
2023-02-28T03:08:27.688Z,1027.37
2023-02-28T03:09:27.697Z,1027.36
2023-02-28T03:10:27.696Z,1027.42
2023-02-28T03:11:28.029Z,1027.43
2023-02-28T03:12:27.660Z,1027.40
2023-02-28T03:13:27.643Z,1027.44
2023-02-28T03:14:27.628Z,1027.35
2023-02-28T03:15:27.633Z,1027.41
2023-02-28T03:16:27.640Z,1027.36
2023-02-28T03:17:27.593Z,1027.38
2023-02-28T03:18:27.587Z,1027.35
2023-02-28T03:19:27.580Z,1027.44
2023-02-28T03:20:27.594Z,1027.39
2023-02-28T03:21:27.971Z,1027.46
2023-02-28T03:22:27.556Z,1027.41
2023-02-28T03:23:27.543Z,1027.42
2023-02-28T03:24:27.534Z,1027.39
2023-02-28T03:25:27.523Z,1027.44
2023-02-28T03:26:27.505Z,1027.39
2023-02-28T03:27:27.547Z,1027.45
2023-02-28T03:28:27.497Z,1027.48
2023-02-28T03:29:27.485Z,1027.50
2023-02-28T03:30:27.467Z,1027.51
2023-02-28T03:31:27.935Z,1027.54
2023-02-28T03:32:27.468Z,1027.60
2023-02-28T03:33:27.463Z,1027.55
2023-02-28T03:34:27.424Z,1027.58
2023-02-28T03:35:27.452Z,1027.56
2023-02-28T03:36:27.420Z,1027.51
2023-02-28T03:37:27.445Z,1027.46
2023-02-28T03:38:27.390Z,1027.49
2023-02-28T03:39:27.378Z,1027.52
2023-02-28T03:40:27.379Z,1027.53
2023-02-28T03:41:27.726Z,1027.55
2023-02-28T03:42:27.344Z,1027.53
2023-02-28T03:43:27.338Z,1027.52
2023-02-28T03:44:27.320Z,1027.57
2023-02-28T03:45:27.325Z,1027.55
2023-02-28T03:46:27.311Z,1027.56
2023-02-28T03:47:27.317Z,1027.53
2023-02-28T03:48:27.291Z,1027.53
2023-02-28T03:49:27.269Z,1027.55
2023-02-28T03:50:27.268Z,1027.51
2023-02-28T03:51:27.647Z,1027.54
2023-02-28T03:52:27.259Z,1027.52
2023-02-28T03:53:27.233Z,1027.51
2023-02-28T03:54:27.232Z,1027.50
2023-02-28T03:55:27.222Z,1027.58
2023-02-28T03:56:27.193Z,1027.57
2023-02-28T03:57:27.188Z,1027.53
2023-02-28T03:58:27.199Z,1027.61
2023-02-28T03:59:27.302Z,1027.56
2023-02-28T04:00:27.743Z,1027.55
2023-02-28T04:01:27.714Z,1027.58
2023-02-28T04:02:27.138Z,1027.67
2023-02-28T04:03:27.131Z,1027.66
2023-02-28T04:04:27.176Z,1027.68
2023-02-28T04:05:27.126Z,1027.69
2023-02-28T04:06:27.117Z,1027.67
2023-02-28T04:07:27.085Z,1027.73
2023-02-28T04:08:27.103Z,1027.74
2023-02-28T04:09:27.080Z,1027.75
2023-02-28T04:10:27.047Z,1027.70
2023-02-28T04:11:27.330Z,1027.67
2023-02-28T04:12:27.043Z,1027.69
2023-02-28T04:13:27.040Z,1027.63
2023-02-28T04:14:27.014Z,1027.61
2023-02-28T04:15:27.007Z,1027.64
2023-02-28T04:16:35.124Z,1027.61
2023-02-28T04:17:28.007Z,1027.64
2023-02-28T04:18:26.964Z,1027.61
2023-02-28T04:19:26.972Z,1027.69
2023-02-28T04:20:26.949Z,1027.67
2023-02-28T04:21:28.037Z,1027.65
2023-02-28T04:22:26.931Z,1027.64
2023-02-28T04:23:26.924Z,1027.62
2023-02-28T04:24:26.931Z,1027.63
2023-02-28T04:25:26.915Z,1027.63
2023-02-28T04:26:26.885Z,1027.72
2023-02-28T04:27:26.875Z,1027.63
2023-02-28T04:28:26.860Z,1027.65
2023-02-28T04:29:26.868Z,1027.61
2023-02-28T04:30:26.850Z,1027.64
2023-02-28T04:31:27.135Z,1027.59
2023-02-28T04:32:26.867Z,1027.73
2023-02-28T04:33:26.820Z,1027.68
2023-02-28T04:34:26.811Z,1027.67
2023-02-28T04:35:26.814Z,1027.66
2023-02-28T04:36:26.797Z,1027.62
2023-02-28T04:37:26.776Z,1027.68
2023-02-28T04:38:26.767Z,1027.66
2023-02-28T04:39:26.747Z,1027.67
2023-02-28T04:40:26.768Z,1027.68
2023-02-28T04:41:28.051Z,1027.71
2023-02-28T04:42:26.727Z,1027.73
2023-02-28T04:43:26.717Z,1027.70
2023-02-28T04:44:26.702Z,1027.72
2023-02-28T04:45:26.738Z,1027.71
2023-02-28T04:46:26.681Z,1027.73
2023-02-28T04:47:26.683Z,1027.69
2023-02-28T04:48:26.670Z,1027.69
2023-02-28T04:49:26.654Z,1027.73
2023-02-28T04:50:26.634Z,1027.73
2023-02-28T04:51:26.651Z,1027.71
2023-02-28T04:52:26.613Z,1027.81
2023-02-28T04:53:26.617Z,1027.73
2023-02-28T04:54:26.607Z,1027.78
2023-02-28T04:55:26.587Z,1027.78
2023-02-28T04:56:26.595Z,1027.75
2023-02-28T04:57:26.576Z,1027.74
2023-02-28T04:58:26.558Z,1027.76
2023-02-28T04:59:26.541Z,1027.75
2023-02-28T05:00:26.536Z,1027.72
2023-02-28T05:01:26.625Z,1027.68
2023-02-28T05:02:26.548Z,1027.74
2023-02-28T05:03:28.028Z,1027.74
2023-02-28T05:04:26.517Z,1027.73
2023-02-28T05:05:26.482Z,1027.79
2023-02-28T05:06:26.486Z,1027.79
2023-02-28T05:07:26.466Z,1027.76
2023-02-28T05:08:26.456Z,1027.75
2023-02-28T05:09:26.448Z,1027.86
2023-02-28T05:10:26.421Z,1027.83
2023-02-28T05:11:26.416Z,1027.77
2023-02-28T05:12:26.436Z,1027.82
2023-02-28T05:13:26.405Z,1027.79
2023-02-28T05:14:26.399Z,1027.80
2023-02-28T05:15:26.376Z,1027.83
2023-02-28T05:16:26.408Z,1027.82
2023-02-28T05:17:26.354Z,1027.81
2023-02-28T05:18:26.360Z,1027.81
2023-02-28T05:19:26.331Z,1027.80
2023-02-28T05:20:26.335Z,1027.79
2023-02-28T05:21:26.584Z,1027.83
2023-02-28T05:22:26.317Z,1027.79
2023-02-28T05:23:26.296Z,1027.86
2023-02-28T05:24:26.279Z,1027.82
2023-02-28T05:25:26.277Z,1027.84
2023-02-28T05:26:26.279Z,1027.87
2023-02-28T05:27:26.254Z,1027.86
2023-02-28T05:28:26.260Z,1027.83
2023-02-28T05:29:26.253Z,1027.84
2023-02-28T05:30:26.221Z,1027.87
2023-02-28T05:31:26.283Z,1027.86
2023-02-28T05:32:26.269Z,1027.88
2023-02-28T05:33:26.192Z,1027.82
2023-02-28T05:34:26.179Z,1027.85
2023-02-28T05:35:26.204Z,1027.87
2023-02-28T05:36:26.175Z,1027.89
2023-02-28T05:37:26.158Z,1027.89
2023-02-28T05:38:26.148Z,1027.94
2023-02-28T05:39:26.136Z,1027.87
2023-02-28T05:40:26.130Z,1027.91
2023-02-28T05:41:26.117Z,1027.94
2023-02-28T05:42:26.138Z,1027.89
2023-02-28T05:43:26.098Z,1027.96
2023-02-28T05:44:26.093Z,1027.89
2023-02-28T05:45:26.069Z,1027.94
2023-02-28T05:46:26.059Z,1027.89
2023-02-28T05:47:26.107Z,1027.87
2023-02-28T05:48:26.065Z,1027.89
2023-02-28T05:49:26.044Z,1028.00
2023-02-28T05:50:26.023Z,1027.97
2023-02-28T05:51:26.001Z,1027.90
2023-02-28T05:52:26.006Z,1028.00
2023-02-28T05:53:25.993Z,1028.09
2023-02-28T05:54:25.972Z,1028.03
2023-02-28T05:55:25.962Z,1028.08
2023-02-28T05:56:25.976Z,1027.99
2023-02-28T05:57:25.972Z,1028.04
2023-02-28T05:58:25.949Z,1028.08
2023-02-28T05:59:25.927Z,1028.02
2023-02-28T06:00:25.938Z,1028.06
2023-02-28T06:01:25.917Z,1028.06
2023-02-28T06:02:25.962Z,1028.10
2023-02-28T06:03:25.994Z,1028.09
2023-02-28T06:04:31.837Z,1028.09
2023-02-28T06:05:26.889Z,1028.06
2023-02-28T06:06:25.863Z,1028.08
2023-02-28T06:07:25.851Z,1028.08
2023-02-28T06:08:25.837Z,1028.10
2023-02-28T06:09:25.847Z,1028.10
2023-02-28T06:10:25.816Z,1028.16
2023-02-28T06:11:25.825Z,1028.15
2023-02-28T06:12:25.798Z,1028.11
2023-02-28T06:13:25.782Z,1028.07
2023-02-28T06:14:25.778Z,1028.15
2023-02-28T06:15:25.788Z,1028.07
2023-02-28T06:16:25.828Z,1028.19
2023-02-28T06:17:25.767Z,1028.05
2023-02-28T06:18:25.732Z,1028.07
2023-02-28T06:19:25.725Z,1028.07
2023-02-28T06:20:25.739Z,1028.06
2023-02-28T06:21:25.709Z,1028.13
2023-02-28T06:22:25.699Z,1028.19
2023-02-28T06:23:25.698Z,1028.16
2023-02-28T06:24:25.671Z,1028.23
2023-02-28T06:25:25.671Z,1028.15
2023-02-28T06:26:25.668Z,1028.11
2023-02-28T06:27:25.654Z,1028.19
2023-02-28T06:28:25.648Z,1028.17
2023-02-28T06:29:25.623Z,1028.20
2023-02-28T06:30:25.604Z,1028.23
2023-02-28T06:31:25.660Z,1028.23
2023-02-28T06:32:25.693Z,1028.25
2023-02-28T06:33:25.585Z,1028.26
2023-02-28T06:34:25.588Z,1028.28
2023-02-28T06:35:25.623Z,1028.32
2023-02-28T06:36:25.597Z,1028.30
2023-02-28T06:37:25.561Z,1028.30
2023-02-28T06:38:25.534Z,1028.34
2023-02-28T06:39:25.533Z,1028.32
2023-02-28T06:40:25.516Z,1028.31
2023-02-28T06:41:25.488Z,1028.39
2023-02-28T06:42:25.509Z,1028.41
2023-02-28T06:43:25.501Z,1028.40
2023-02-28T06:44:25.475Z,1028.43
2023-02-28T06:45:25.456Z,1028.36
2023-02-28T06:46:25.501Z,1028.42
2023-02-28T06:47:25.482Z,1028.40
2023-02-28T06:48:25.444Z,1028.44
2023-02-28T06:49:25.430Z,1028.40
2023-02-28T06:50:25.404Z,1028.40
2023-02-28T06:51:25.441Z,1028.47
2023-02-28T06:52:25.377Z,1028.43
2023-02-28T06:53:25.369Z,1028.50
2023-02-28T06:54:25.389Z,1028.45
2023-02-28T06:55:25.357Z,1028.51
2023-02-28T06:56:25.361Z,1028.44
2023-02-28T06:57:25.364Z,1028.47
2023-02-28T06:58:25.354Z,1028.47
2023-02-28T06:59:25.320Z,1028.42
2023-02-28T07:00:25.311Z,1028.52
2023-02-28T07:01:25.373Z,1028.48
2023-02-28T07:02:25.287Z,1028.50
2023-02-28T07:03:25.287Z,1028.53
2023-02-28T07:04:25.389Z,1028.46
2023-02-28T07:05:25.269Z,1028.43
2023-02-28T07:06:25.243Z,1028.55
2023-02-28T07:07:25.229Z,1028.54
2023-02-28T07:08:25.266Z,1028.56
2023-02-28T07:09:25.218Z,1028.51
2023-02-28T07:10:25.195Z,1028.54
2023-02-28T07:11:33.040Z,1028.57
2023-02-28T07:12:32.793Z,1028.57
2023-02-28T07:13:25.172Z,1028.56
2023-02-28T07:14:25.164Z,1028.58
2023-02-28T07:15:25.153Z,1028.57
2023-02-28T07:16:25.260Z,1028.64
2023-02-28T07:17:25.126Z,1028.57
2023-02-28T07:18:25.126Z,1028.60
2023-02-28T07:19:25.125Z,1028.57
2023-02-28T07:20:25.132Z,1028.62
2023-02-28T07:21:25.094Z,1028.60
2023-02-28T07:22:25.068Z,1028.64
2023-02-28T07:23:25.064Z,1028.65
2023-02-28T07:24:25.063Z,1028.65
2023-02-28T07:25:25.044Z,1028.63
2023-02-28T07:26:25.040Z,1028.68
2023-02-28T07:27:25.018Z,1028.60
2023-02-28T07:28:25.027Z,1028.57
2023-02-28T07:29:25.004Z,1028.56
2023-02-28T07:30:24.990Z,1028.58
2023-02-28T07:31:25.025Z,1028.58
2023-02-28T07:32:25.066Z,1028.63
2023-02-28T07:33:24.958Z,1028.72
2023-02-28T07:34:24.970Z,1028.59
2023-02-28T07:35:24.996Z,1028.61
2023-02-28T07:36:24.957Z,1028.66
2023-02-28T07:37:24.917Z,1028.62
2023-02-28T07:38:24.901Z,1028.58
2023-02-28T07:39:24.894Z,1028.57
2023-02-28T07:40:24.892Z,1028.66
2023-02-28T07:41:24.901Z,1028.67
2023-02-28T07:42:24.909Z,1028.63
2023-02-28T07:43:24.854Z,1028.64
2023-02-28T07:44:24.851Z,1028.64
2023-02-28T07:45:24.841Z,1028.70
2023-02-28T07:46:24.868Z,1028.69
2023-02-28T07:47:25.520Z,1028.71
2023-02-28T07:48:24.829Z,1028.66
2023-02-28T07:49:24.791Z,1028.64
2023-02-28T07:50:27.034Z,1028.68
2023-02-28T07:51:24.772Z,1028.68
2023-02-28T07:52:24.797Z,1028.64
2023-02-28T07:53:24.755Z,1028.71
2023-02-28T07:54:24.740Z,1028.66
2023-02-28T07:55:24.740Z,1028.68
2023-02-28T07:56:24.723Z,1028.66
2023-02-28T07:57:24.717Z,1028.69
2023-02-28T07:58:24.715Z,1028.74
2023-02-28T07:59:24.697Z,1028.73
2023-02-28T08:00:24.749Z,1028.72
2023-02-28T08:01:24.725Z,1028.73
2023-02-28T08:02:24.674Z,1028.72
2023-02-28T08:03:24.687Z,1028.72
2023-02-28T08:04:24.666Z,1028.72
2023-02-28T08:05:24.637Z,1028.68
2023-02-28T08:06:24.664Z,1028.66
2023-02-28T08:07:24.617Z,1028.72
2023-02-28T08:08:24.643Z,1028.71
2023-02-28T08:09:24.608Z,1028.75
2023-02-28T08:10:24.577Z,1028.72
2023-02-28T08:11:24.567Z,1028.73
2023-02-28T08:12:24.588Z,1028.79
2023-02-28T08:13:24.542Z,1028.72
2023-02-28T08:14:24.547Z,1028.70
2023-02-28T08:15:24.536Z,1028.66
2023-02-28T08:16:24.613Z,1028.65
2023-02-28T08:17:24.524Z,1028.69
2023-02-28T08:18:24.519Z,1028.69
2023-02-28T08:19:24.496Z,1028.72
2023-02-28T08:20:24.495Z,1028.69
2023-02-28T08:21:24.477Z,1028.73
2023-02-28T08:22:24.472Z,1028.68
2023-02-28T08:23:24.456Z,1028.71
2023-02-28T08:24:24.451Z,1028.72
2023-02-28T08:25:24.432Z,1028.69
2023-02-28T08:26:24.425Z,1028.75
2023-02-28T08:27:24.400Z,1028.71
2023-02-28T08:28:26.828Z,1028.69
2023-02-28T08:29:24.386Z,1028.74
2023-02-28T08:30:24.415Z,1028.74
2023-02-28T08:31:24.421Z,1028.74
2023-02-28T08:32:29.877Z,1028.76
2023-02-28T08:33:25.342Z,1028.80
2023-02-28T08:34:24.325Z,1028.66
2023-02-28T08:35:24.376Z,1028.70
2023-02-28T08:36:24.340Z,1028.75
2023-02-28T08:37:24.330Z,1028.71
2023-02-28T08:38:24.284Z,1028.70
2023-02-28T08:39:24.269Z,1028.74
2023-02-28T08:40:24.284Z,1028.71
2023-02-28T08:41:24.273Z,1028.69
2023-02-28T08:42:24.253Z,1028.72
2023-02-28T08:43:24.239Z,1028.75
2023-02-28T08:44:24.228Z,1028.74
2023-02-28T08:45:24.222Z,1028.73
2023-02-28T08:46:24.204Z,1028.76
2023-02-28T08:47:24.201Z,1028.71
2023-02-28T08:48:24.177Z,1028.70
2023-02-28T08:49:24.169Z,1028.73
2023-02-28T08:50:24.158Z,1028.70
2023-02-28T08:51:24.141Z,1028.83
2023-02-28T08:52:24.145Z,1028.82
2023-02-28T08:53:24.140Z,1028.82
2023-02-28T08:54:24.116Z,1028.85
2023-02-28T08:55:24.108Z,1028.78
2023-02-28T08:56:24.125Z,1028.81
2023-02-28T08:57:24.093Z,1028.80
2023-02-28T08:58:24.066Z,1028.83
2023-02-28T08:59:24.053Z,1028.79
2023-02-28T09:00:24.058Z,1028.77
2023-02-28T09:01:24.125Z,1028.74
2023-02-28T09:02:24.022Z,1028.75
2023-02-28T09:03:25.094Z,1028.72
2023-02-28T09:04:25.398Z,1028.72
2023-02-28T09:05:24.017Z,1028.72
2023-02-28T09:06:23.988Z,1028.69
2023-02-28T09:07:23.968Z,1028.73
2023-02-28T09:08:23.985Z,1028.69
2023-02-28T09:09:23.982Z,1028.70
2023-02-28T09:10:23.947Z,1028.75
2023-02-28T09:11:23.931Z,1028.73
2023-02-28T09:12:23.979Z,1028.71
2023-02-28T09:13:23.910Z,1028.70
2023-02-28T09:14:23.904Z,1028.73
2023-02-28T09:15:23.917Z,1028.74
2023-02-28T09:16:24.108Z,1028.76
2023-02-28T09:17:23.869Z,1028.76
2023-02-28T09:18:23.866Z,1028.78
2023-02-28T09:19:23.861Z,1028.82
2023-02-28T09:20:24.032Z,1028.77
2023-02-28T09:21:23.840Z,1028.78
2023-02-28T09:22:23.827Z,1028.73
2023-02-28T09:23:23.806Z,1028.74
2023-02-28T09:24:23.808Z,1028.75
2023-02-28T09:25:23.801Z,1028.82
2023-02-28T09:26:23.794Z,1028.74
2023-02-28T09:27:23.768Z,1028.80
2023-02-28T09:28:23.793Z,1028.70
2023-02-28T09:29:23.741Z,1028.72
2023-02-28T09:30:23.793Z,1028.74
2023-02-28T09:31:23.737Z,1028.69
2023-02-28T09:32:23.776Z,1028.68
2023-02-28T09:33:23.718Z,1028.74
2023-02-28T09:34:23.830Z,1028.67
2023-02-28T09:35:23.710Z,1028.71
2023-02-28T09:36:26.908Z,1028.74
2023-02-28T09:37:24.668Z,1028.74
2023-02-28T09:50:13.237Z,1028.72
2023-02-28T09:50:13.685Z,1028.67
2023-02-28T09:51:13.608Z,1028.73
2023-02-28T09:52:13.598Z,1028.71
2023-02-28T09:53:13.571Z,1028.68
2023-02-28T09:54:13.531Z,1028.74
2023-02-28T09:55:13.534Z,1028.75
2023-02-28T09:56:13.510Z,1028.76
2023-02-28T09:57:13.501Z,1028.75
2023-02-28T09:58:13.502Z,1028.72
2023-02-28T09:59:13.487Z,1028.77
2023-02-28T10:00:13.463Z,1028.73
2023-02-28T10:01:13.507Z,1028.70
2023-02-28T10:02:13.443Z,1028.74
2023-02-28T10:03:13.445Z,1028.74
2023-02-28T10:04:13.503Z,1028.67
2023-02-28T10:05:13.409Z,1028.76
2023-02-28T10:06:13.426Z,1028.77
2023-02-28T10:07:13.405Z,1028.68
2023-02-28T10:08:13.382Z,1028.74
2023-02-28T10:09:13.368Z,1028.69
2023-02-28T10:10:13.358Z,1028.68
2023-02-28T10:11:13.343Z,1028.74
2023-02-28T10:12:13.334Z,1028.74
2023-02-28T10:13:13.344Z,1028.80
2023-02-28T10:14:13.320Z,1028.73
2023-02-28T10:15:13.327Z,1028.76
2023-02-28T10:16:13.336Z,1028.80
2023-02-28T10:17:13.281Z,1028.78
2023-02-28T10:18:13.828Z,1028.72
2023-02-28T10:19:13.259Z,1028.73
2023-02-28T10:20:13.249Z,1028.78
2023-02-28T10:21:13.256Z,1028.72
2023-02-28T10:32:05.624Z,1028.74
2023-02-28T10:32:06.027Z,1028.72
2023-02-28T10:40:54.983Z,1028.74
2023-02-28T10:40:55.369Z,1028.68
2023-02-28T10:41:55.324Z,1028.78
2023-02-28T10:42:55.313Z,1028.69
2023-02-28T10:43:55.294Z,1028.73
2023-02-28T10:44:55.291Z,1028.79
2023-02-28T10:45:55.280Z,1028.83
2023-02-28T10:46:55.259Z,1028.79
2023-02-28T10:47:55.270Z,1028.79
2023-02-28T10:48:55.249Z,1028.73
2023-02-28T10:49:55.222Z,1028.74
2023-02-28T10:50:55.217Z,1028.75
2023-02-28T10:51:55.204Z,1028.76
2023-02-28T10:52:55.193Z,1028.68
2023-02-28T10:54:01.534Z,1028.68
2023-02-28T10:54:56.200Z,1028.72
2023-02-28T10:55:55.155Z,1028.71
2023-02-28T10:56:55.145Z,1028.66
2023-02-28T10:57:55.144Z,1028.71
2023-02-28T10:58:55.140Z,1028.62
2023-02-28T10:59:55.117Z,1028.62
2023-02-28T11:00:55.119Z,1028.61
2023-02-28T11:01:55.163Z,1028.60
2023-02-28T11:02:55.091Z,1028.60
2023-02-28T11:03:55.088Z,1028.57
2023-02-28T11:04:55.122Z,1028.61
2023-02-28T11:05:55.064Z,1028.60
2023-02-28T11:06:55.039Z,1028.54
2023-02-28T11:07:55.041Z,1028.57
2023-02-28T11:08:55.017Z,1028.62
2023-02-28T11:09:55.005Z,1028.51
2023-02-28T11:10:55.027Z,1028.47
2023-02-28T11:11:55.048Z,1028.48
2023-02-28T11:12:54.976Z,1028.50
2023-02-28T11:13:54.963Z,1028.44
2023-02-28T11:14:54.959Z,1028.47
2023-02-28T11:15:55.036Z,1028.45
2023-02-28T11:16:54.945Z,1028.50
2023-02-28T11:17:54.955Z,1028.46
2023-02-28T11:18:54.912Z,1028.51
2023-02-28T11:19:54.949Z,1028.46
2023-02-28T11:20:54.889Z,1028.41
2023-02-28T11:21:54.890Z,1028.49
2023-02-28T11:22:54.870Z,1028.42
2023-02-28T11:23:54.862Z,1028.40
2023-02-28T11:24:54.846Z,1028.41
2023-02-28T11:25:54.877Z,1028.41
2023-02-28T11:26:54.834Z,1028.37
2023-02-28T11:27:54.806Z,1028.30
2023-02-28T11:28:54.807Z,1028.26
2023-02-28T11:29:54.794Z,1028.28
2023-02-28T11:30:54.837Z,1028.26
2023-02-28T11:31:54.774Z,1028.25
2023-02-28T11:32:55.040Z,1028.26
2023-02-28T11:33:54.761Z,1028.19
2023-02-28T11:34:54.734Z,1028.19
2023-02-28T11:35:54.811Z,1028.19
2023-02-28T11:36:54.756Z,1028.24
2023-02-28T11:37:54.729Z,1028.25
2023-02-28T11:38:54.689Z,1028.26
2023-02-28T11:39:54.684Z,1028.25
2023-02-28T11:40:54.680Z,1028.24
2023-02-28T11:41:54.670Z,1028.28
2023-02-28T11:42:54.676Z,1028.18
2023-02-28T11:43:54.692Z,1028.20
2023-02-28T11:44:54.628Z,1028.16
2023-02-28T11:59:59.757Z,1028.09
2023-02-28T12:00:00.194Z,1028.04
2023-02-28T12:01:00.133Z,1028.07
2023-02-28T12:02:00.206Z,1028.07
2023-02-28T12:03:00.130Z,1028.13
2023-02-28T12:04:00.092Z,1028.10
2023-02-28T12:05:00.096Z,1028.13
2023-02-28T12:06:00.085Z,1028.16
2023-02-28T12:07:00.020Z,1028.16
2023-02-28T12:08:00.021Z,1028.07
2023-02-28T12:09:00.022Z,1028.05
2023-02-28T12:09:59.998Z,1028.03
2023-02-28T12:11:00.005Z,1028.04
2023-02-28T12:11:59.974Z,1027.98
2023-02-28T12:12:59.975Z,1027.99
2023-02-28T12:13:59.959Z,1028.04
2023-02-28T12:14:59.941Z,1028.05
2023-02-28T12:15:59.990Z,1028.01
2023-02-28T12:16:59.935Z,1028.10
2023-02-28T12:17:59.932Z,1028.02
2023-02-28T12:18:59.900Z,1028.01
2023-02-28T12:19:59.889Z,1028.05
2023-02-28T12:20:59.879Z,1027.98
2023-02-28T12:21:59.908Z,1028.03
2023-02-28T12:22:59.878Z,1028.00
2023-02-28T12:23:59.891Z,1028.01
2023-02-28T12:24:59.834Z,1028.03
2023-02-28T12:25:59.837Z,1028.08
2023-02-28T12:26:59.845Z,1028.06
2023-02-28T12:27:59.806Z,1028.00
2023-02-28T12:28:59.797Z,1028.06
2023-02-28T12:29:59.782Z,1028.03
2023-02-28T12:30:59.778Z,1028.06
2023-02-28T12:31:59.860Z,1028.01
2023-02-28T12:32:59.775Z,1027.96
2023-02-28T12:33:59.739Z,1028.02
2023-02-28T12:34:59.746Z,1028.01
2023-02-28T12:35:59.800Z,1027.99
2023-02-28T12:36:59.704Z,1027.94
2023-02-28T12:37:59.696Z,1027.92
2023-02-28T13:23:54.076Z,1027.96
2023-02-28T13:23:54.531Z,1027.33
2023-02-28T13:24:54.469Z,1027.35
2023-02-28T13:25:54.502Z,1027.27
2023-02-28T13:29:47.070Z,1027.28
2023-02-28T13:29:47.465Z,1027.28
2023-02-28T13:30:47.449Z,1027.32